Webcam op het Zuiden Meer informatie Webcam op het Zuiden


Webcam op het Westen Meer informatie Webcam op het Westen


Onweer radar Meer informatie blitzortung!


Regen radar  rain snow radar


Lokaal brand risico:
CBI


Regionaal brand risico: Meer informatie


Lokaal brand risico:
Gebaseerd op actuele waarde
CBI


Bezoek ook deze websites:

Template documentation
and downloads

And another site



Het weer levert geen direct gevaar op.    Er zijn geen waarschuwingen afgegeven.

METAR rapporten vliegvelden

   
ETWM - Meppen, Germany
Afstand tot: O 29 km
Gewijzigd: 21-11-2019 14:20
  
  
   Wind: Oosten 5.6 km/h
Wind: Oosten 5.6 km/h
Temperatuur: 4°C
Voelt als: 3°C
Dauwpunt: 4°C
Vochtigheid: 100%
Barometer: 1009 hPa
ETWM 211320Z AUTO 09003KT //// // ////// 04/04 Q1009 ///
EHGG - Groningen/Eelde, Netherlands
Afstand tot: NNW 47 km
Gewijzigd: 21-11-2019 14:25
Nevel, Bewolking  
Nevel, Bewolking  
   Wind: Oosten 11.1 km/h
Wind: Oosten 11.1 km/h
Temperatuur: 4°C
Voelt als: 1°C
Dauwpunt: 4°C
Vochtigheid: 100%
Barometer: 1009 hPa
Bewolking: Bewolking
Zicht: 5 km
Bewolking: Grotendeels bewolkt 400 ft,
Bewolking 500 ft
EHGG 211325Z AUTO 10006KT 060V140 4700 BR BKN004 OVC005 04/04 Q1009 TEMPO 5000 BKN005
EDDG - Muenster/Osnabru, Germany
Afstand tot: ZO 87 km
Gewijzigd: 21-11-2019 14:50
Gedeeltelijk bewolkt  
Gedeeltelijk bewolkt  
   Wind: OZO 5.6 km/h
Wind: OZO 5.6 km/h
Temperatuur: 6°C
Voelt als: 5°C
Dauwpunt: 4°C
Vochtigheid: 87%
Barometer: 1008 hPa
Bewolking: Gedeeltelijk bewolkt
Zicht: 8 km
Bewolking: Licht bewolkt 900 ft,
Gedeeltelijk bewolkt 1100 ft
EDDG 211350Z 12003KT 050V200 8000 FEW009 SCT011 06/04 Q1008 NOSIG
EHLW - Leeuwarden Rnlaf, Netherlands
Afstand tot: NW 93 km
Gewijzigd: 21-11-2019 14:55
Nevel, Bewolking  
Nevel, Bewolking  
   Wind: Oosten 16.7 km/h
Wind: Oosten 16.7 km/h
Temperatuur: 3°C
Voelt als: -1°C
Dauwpunt: 3°C
Vochtigheid: 100%
Barometer: 1008 hPa
Bewolking: Bewolking
Zicht: 5 km
Bewolking: Grotendeels bewolkt 500 ft,
Bewolking 600 ft
EHLW 211355Z AUTO 09009KT 010V170 5000 BR BKN005 OVC006 03/03 Q1008 YLO 10009KT 4500 BR BKN005 BKN008
ETNT - Wittmundhaven(Ga, Germany
Afstand tot: NNO 100 km
Gewijzigd: 21-11-2019 14:45
Lichte (mot)regen, Nevel, Bewolking  
Lichte (mot)regen, Nevel, Bewolking  
   Wind: Oosten 9.3 km/h
Wind: Oosten 9.3 km/h
Temperatuur: 5°C
Voelt als: 3°C
Dauwpunt: 4°C
Vochtigheid: 93%
Barometer: 1009 hPa
Bewolking: Bewolking
Zicht: 3 km
Bewolking: Bewolking 100 ft
ETNT 211345Z 09005KT 3000 -DZ BR OVC001 05/04 Q1009 RED YLO TEMPO RED
ETND - Diepholz (ger-Af, Germany
Afstand tot: O 104 km
Gewijzigd: 21-11-2019 14:20
Nevel, Grotendeels bewolkt  
Nevel, Grotendeels bewolkt  
   Wind: Oosten 7.4 km/h
Wind: Oosten 7.4 km/h
Temperatuur: 4°C
Voelt als: 2°C
Dauwpunt: 4°C
Vochtigheid: 100%
Barometer: 1009 hPa
Bewolking: Grotendeels bewolkt
Zicht: 4 km
Bewolking: Licht bewolkt 300 ft,
Grotendeels bewolkt 400 ft
ETND 211320Z 09004KT 4000 BR FEW003 BKN004 04/04 Q1009 YLO YLO TEMPO AMB
ETNT - Wittmundhaven(Ga, Germany
Afstand tot: NNO 102 km
Gewijzigd: 21-11-2019 14:45
Lichte (mot)regen, Nevel, Bewolking  
Lichte (mot)regen, Nevel, Bewolking  
   Wind: Oosten 9.3 km/h
Wind: Oosten 9.3 km/h
Temperatuur: 5°C
Voelt als: 3°C
Dauwpunt: 4°C
Vochtigheid: 93%
Barometer: 1009 hPa
Bewolking: Bewolking
Zicht: 3 km
Bewolking: Bewolking 100 ft
ETNT 211345Z 09005KT 3000 -DZ BR OVC001 05/04 Q1009 RED YLO TEMPO RED
EHDL - Deelen Rnlafb, Netherlands
Afstand tot: ZW 103 km
Gewijzigd: 21-11-2019 14:55
Bewolking  
Bewolking  
   Wind: OZO 18.5 km/h
Wind: OZO 18.5 km/h
Temperatuur: 5°C
Voelt als: 1°C
Dauwpunt: 1°C
Vochtigheid: 76%
Barometer: 1007 hPa
Bewolking: Bewolking
Zicht: meer dan 10 km
Bewolking: Gedeeltelijk bewolkt 1600 ft,
Bewolking 15000 ft
EHDL 211355Z AUTO 11010KT 040V200 9999 SCT016 OVC150 05/01 Q1007 WHT
EHMA - Awg-1 Sea, Netherlands
Afstand tot: NW 105 km
Gewijzigd: 21-11-2019 14:25
Bewolking  
Bewolking  
   Wind: OZO 29.6 km/h
Wind: OZO 29.6 km/h
Temperatuur: 5°C
Voelt als: 0°C
Dauwpunt: 3°C
Vochtigheid: 87%
Barometer: 1009 hPa
Bewolking: Bewolking
Zicht: 7 km
Bewolking: Grotendeels bewolkt 500 ft,
Bewolking 600 ft
EHMA 211325Z AUTO 12016KT 7000 BKN005 OVC006 05/03 Q1009 W///H///
EDDW - Bremen, Germany
Afstand tot: ONO 135 km
Gewijzigd: 21-11-2019 14:50
Grotendeels bewolkt  
Grotendeels bewolkt  
   Wind: Oosten 9.3 km/h
Wind: Oosten 9.3 km/h
Temperatuur: 5°C
Voelt als: 3°C
Dauwpunt: 5°C
Vochtigheid: 100%
Barometer: 1009 hPa
Bewolking: Grotendeels bewolkt
Zicht: 8 km
Bewolking: Grotendeels bewolkt 500 ft
EDDW 211350Z 09005KT 070V130 8000 BKN005 05/05 Q1009 BECMG 4500 BR BKN004
EHVL - Vlieland Island, Netherlands
Afstand tot: WNW 138 km
Gewijzigd: 21-11-2019 14:55
Nevel, Bewolking  
Nevel, Bewolking  
   Wind: Oosten 25.9 km/h
Wind: Oosten 25.9 km/h
Temperatuur: 3°C
Voelt als: -2°C
Dauwpunt: 2°C
Vochtigheid: 93%
Barometer: 1008 hPa
Bewolking: Bewolking
Zicht: 6 km
Bewolking: Grotendeels bewolkt 500 ft,
Bewolking 700 ft
EHVL 211355Z AUTO 09014KT 6000 BR BKN005 OVC007 03/02 Q1008 YLO
EDLV - Niederrhein, Germany
Afstand tot: ZZW 139 km
Gewijzigd: 21-11-2019 14:50
Helder  
Helder  
   Wind: ZO 11.1 km/h
Wind: ZO 11.1 km/h
Temperatuur: 5°C
Voelt als: 2°C
Dauwpunt: 2°C
Vochtigheid: 81%
Barometer: 1007 hPa
Zicht: meer dan 10 km
Bewolking: Helder
EDLV 211350Z 13006KT 100V160 CAVOK 05/02 Q1007
EHKD - De Kooy (navy), Netherlands
Afstand tot: W 144 km
Gewijzigd: 21-11-2019 14:55
Nevel, Bewolking  
Nevel, Bewolking  
   Wind: Oosten 22.2 km/h
Wind: Oosten 22.2 km/h
Temperatuur: 3°C
Voelt als: -2°C
Dauwpunt: 2°C
Vochtigheid: 93%
Barometer: 1007 hPa
Bewolking: Bewolking
Zicht: 6 km
Bewolking: Bewolking 700 ft
EHKD 211355Z AUTO 09012KT 060V120 6000 BR OVC007 03/02 Q1007 GRN 11010KT 6000 BKN006
EDLW - Dortmund/Wickede, Germany
Afstand tot: ZZO 150 km
Gewijzigd: 21-11-2019 14:50
Helder  
Helder  
   Wind: Oosten 9.3 km/h
Wind: Oosten 9.3 km/h
Temperatuur: 5°C
Voelt als: 3°C
Dauwpunt: 2°C
Vochtigheid: 81%
Barometer: 1007 hPa
Zicht: meer dan 10 km
Bewolking: Helder
EDLW 211350Z 09005KT 050V110 CAVOK 05/02 Q1007
EHVK - Volkel Rnlafb, Netherlands
Afstand tot: ZZW 149 km
Gewijzigd: 21-11-2019 14:55
Nevel, Bewolking  
Nevel, Bewolking  
   Wind: OZO 11.1 km/h
Wind: OZO 11.1 km/h
Temperatuur: 3°C
Voelt als: 0°C
Dauwpunt: 1°C
Vochtigheid: 87%
Barometer: 1007 hPa
Bewolking: Bewolking
Zicht: 8 km
Bewolking: Bewolking 15000 ft
EHVK 211355Z AUTO 12006KT 090V160 8000 BR OVC150/// 03/01 Q1007 BLU 13006KT 8000 FEW010 SCT160
EDLW - Dortmund/Wickede, Germany
Afstand tot: ZZO 150 km
Gewijzigd: 21-11-2019 14:50
Helder  
Helder  
   Wind: Oosten 9.3 km/h
Wind: Oosten 9.3 km/h
Temperatuur: 5°C
Voelt als: 3°C
Dauwpunt: 2°C
Vochtigheid: 81%
Barometer: 1007 hPa
Zicht: meer dan 10 km
Bewolking: Helder
EDLW 211350Z 09005KT 050V110 CAVOK 05/02 Q1007
EHMG - L9-Ff-1 Sea, Netherlands
Afstand tot: NW 155 km
Gewijzigd: 21-11-2019 14:25
Bewolking  
Bewolking  
   Wind: OZO 33.3 km/h
Wind: OZO 33.3 km/h
Temperatuur: 4°C
Voelt als: -2°C
Dauwpunt: 3°C
Vochtigheid: 93%
Barometer: 1009 hPa
Bewolking: Bewolking
Zicht: 8 km
Bewolking: Gedeeltelijk bewolkt 400 ft,
Grotendeels bewolkt 500 ft,
Bewolking 700 ft
EHMG 211325Z AUTO 12018KT 8000 SCT004 BKN005 OVC007 04/03 Q1009 W///H///
ETHB - Buckeburg(Ger-Ar, Germany
Afstand tot: OZO 161 km
Gewijzigd: 21-11-2019 14:37
Grotendeels bewolkt  
Grotendeels bewolkt  
   Wind: ZO 5.6 km/h
Wind: ZO 5.6 km/h
Temperatuur: 6°C
Voelt als: 5°C
Dauwpunt: 4°C
Vochtigheid: 87%
Barometer: 1008 hPa
Bewolking: Grotendeels bewolkt
Zicht: meer dan 10 km
Bewolking: Licht bewolkt 400 ft,
Grotendeels bewolkt 900 ft
ETHB 211337Z 14003KT 9999 FEW004 BKN009 06/04 Q1008 GRN GRN TEMPO YLO
ETMN - Nordholz (ger-Na, Germany
Afstand tot: NO 164 km
Gewijzigd: 21-11-2019 14:20
Lichte (mot)regen, Nevel, Bewolking  
Lichte (mot)regen, Nevel, Bewolking  
   Wind: Oosten 16.7 km/h
Wind: Oosten 16.7 km/h
Temperatuur: 5°C
Voelt als: 2°C
Dauwpunt: 4°C
Vochtigheid: 93%
Barometer: 1010 hPa
Bewolking: Bewolking
Zicht: 3 km
Bewolking: Bewolking 100 ft
ETMN 211320Z 09009KT 2500 -DZ BR OVC001 05/04 Q1010 RED YLO TEMPO RED
EDDL - Duesseldorf, Germany
Afstand tot: Z 165 km
Gewijzigd: 21-11-2019 14:50
Helder  
Helder  
   Wind: ZZO 13 km/h
Wind: ZZO 13 km/h
Temperatuur: 6°C
Voelt als: 3°C
Dauwpunt: 2°C
Vochtigheid: 76%
Barometer: 1007 hPa
Zicht: meer dan 10 km
Bewolking: Helder
EDDL 211350Z 16007KT CAVOK 06/02 Q1007 NOSIG
EDLN - Monchengladbach, Germany
Afstand tot: Z 174 km
Gewijzigd: 21-11-2019 14:50
Helder  
Helder  
   Wind: ZO 9.3 km/h
Wind: ZO 9.3 km/h
Temperatuur: 5°C
Voelt als: 3°C
Dauwpunt: 2°C
Vochtigheid: 81%
Barometer: 1007 hPa
Zicht: meer dan 10 km
Bewolking: Helder
EDLN 211350Z 14005KT 110V170 CAVOK 05/02 Q1007

Script ontwikkeld door  Saratoga-weather.org Aangepast voor de template door  Weerstation Leuven

U vindt ons ook hier:

Het Weer Aktueel

European Weather Network

Weather Underground

Wetterpage 24

Apparatuur in gebruik:

Weerstation
Davis VP2

Weerprogramma
Meteohub

Hardware
RaspberryPI, Wireless Weather Envoy, MeteoStick, TP-Link MR3020

Leverancier
Weerhuisje.nl weerstations

Davis VP2

Meteohub

RaspberryPI, Wireless Weather Envoy, MeteoStick, TP-Link MR3020

Weerhuisje.nl weerstations